createdAt,value
2023-03-10T00:00:28.958Z,32.70
2023-03-10T00:02:58.556Z,29.70
2023-03-10T00:05:28.222Z,32.37
2023-03-10T00:07:57.867Z,32.93
2023-03-10T00:10:27.501Z,32.23
2023-03-10T00:12:59.690Z,30.20
2023-03-10T00:15:29.353Z,27.87
2023-03-10T00:17:58.948Z,29.83
2023-03-10T00:20:28.525Z,27.63
2023-03-10T00:22:58.134Z,28.63
2023-03-10T00:25:27.696Z,31.67
2023-03-10T00:27:59.864Z,28.50
2023-03-10T00:30:31.215Z,24.80
2023-03-10T00:33:03.748Z,24.33
2023-03-10T00:35:33.379Z,24.20
2023-03-10T00:38:03.757Z,24.70
2023-03-10T00:40:33.368Z,25.00
2023-03-10T00:43:05.575Z,23.83
2023-03-10T00:45:38.075Z,22.33
2023-03-10T00:48:08.554Z,23.67
2023-03-10T00:50:38.156Z,28.40
2023-03-10T00:53:07.782Z,22.37
2023-03-10T00:55:37.380Z,21.17
2023-03-10T00:58:09.612Z,22.47
2023-03-10T01:00:39.455Z,21.90
2023-03-10T01:03:09.166Z,22.83
2023-03-10T01:05:38.785Z,20.53
2023-03-10T01:08:08.741Z,22.17
2023-03-10T01:10:38.336Z,23.43
2023-03-10T01:13:10.549Z,20.77
2023-03-10T01:15:40.715Z,19.10
2023-03-10T01:18:10.499Z,22.50
2023-03-10T01:20:41.628Z,21.50
2023-03-10T01:23:15.536Z,18.60
2023-03-10T01:25:45.603Z,18.10
2023-03-10T01:28:18.431Z,19.13
2023-03-10T01:30:48.764Z,16.85
2023-03-10T01:33:19.555Z,17.00
2023-03-10T01:35:49.225Z,15.80
2023-03-10T01:38:20.163Z,16.23
2023-03-10T01:40:52.295Z,16.67
2023-03-10T01:43:36.605Z,16.77
2023-03-10T01:46:41.042Z,16.13
2023-03-10T01:49:28.710Z,16.47
2023-03-10T01:52:03.994Z,14.83
2023-03-10T01:54:40.637Z,13.30
2023-03-10T01:57:11.227Z,13.43
2023-03-10T01:59:45.209Z,16.33
2023-03-10T02:02:15.200Z,17.40
2023-03-10T02:04:48.663Z,15.63
2023-03-10T02:07:27.579Z,16.90
2023-03-10T02:09:58.680Z,13.67
2023-03-10T02:12:28.507Z,13.70
2023-03-10T02:15:00.903Z,15.00
2023-03-10T02:17:31.556Z,15.07
2023-03-10T02:20:23.097Z,15.17
2023-03-10T02:22:53.313Z,16.33
2023-03-10T02:25:33.307Z,16.27
2023-03-10T02:28:07.220Z,14.80
2023-03-10T02:30:40.264Z,14.40
2023-03-10T02:33:14.043Z,14.60
2023-03-10T02:35:43.731Z,14.10
2023-03-10T02:38:17.446Z,12.80
2023-03-10T02:40:49.429Z,13.43
2023-03-10T02:43:28.710Z,11.40
2023-03-10T02:46:07.620Z,11.80
2023-03-10T02:48:41.913Z,10.70
2023-03-10T02:51:21.130Z,13.00
2023-03-10T02:53:50.912Z,10.37
2023-03-10T02:56:21.231Z,13.40
2023-03-10T02:58:54.942Z,12.07
2023-03-10T03:01:26.339Z,11.40
2023-03-10T03:03:57.582Z,12.50
2023-03-10T03:06:29.166Z,12.73
2023-03-10T03:08:59.262Z,11.10
2023-03-10T03:11:30.740Z,11.60
2023-03-10T03:14:03.039Z,11.17
2023-03-10T03:16:33.810Z,10.50
2023-03-10T03:19:07.273Z,11.50
2023-03-10T03:21:37.014Z,10.97
2023-03-10T03:24:07.514Z,11.27
2023-03-10T03:26:37.204Z,8.73
2023-03-10T03:29:17.684Z,9.47
2023-03-10T03:31:47.677Z,11.03
2023-03-10T03:34:23.413Z,13.17
2023-03-10T03:36:56.385Z,8.90
2023-03-10T03:39:31.740Z,14.13
2023-03-10T03:42:04.617Z,9.23
2023-03-10T03:44:44.223Z,7.77
2023-03-10T03:47:14.445Z,10.53
2023-03-10T03:49:44.812Z,7.80
2023-03-10T03:52:15.294Z,9.20
2023-03-10T03:54:44.957Z,7.20
2023-03-10T03:57:14.588Z,6.93
2023-03-10T03:59:46.874Z,7.73
2023-03-10T04:02:16.562Z,7.80
2023-03-10T04:04:46.466Z,7.97
2023-03-10T04:07:18.171Z,7.00
2023-03-10T04:09:49.295Z,8.80
2023-03-10T04:12:19.417Z,10.70
2023-03-10T04:14:52.904Z,8.50
2023-03-10T04:17:23.294Z,6.80
2023-03-10T04:20:06.286Z,6.20
2023-03-10T04:22:38.490Z,6.10
2023-03-10T04:25:10.966Z,8.27
2023-03-10T04:27:40.888Z,9.13
2023-03-10T04:30:16.272Z,10.80
2023-03-10T04:32:49.720Z,9.43
2023-03-10T04:35:21.446Z,9.37
2023-03-10T04:37:51.072Z,8.33
2023-03-10T04:40:21.390Z,9.10
2023-03-10T04:42:51.654Z,7.93
2023-03-10T04:45:24.668Z,8.27
2023-03-10T04:47:56.125Z,8.17
2023-03-10T04:50:25.815Z,8.40
2023-03-10T04:52:56.355Z,9.17
2023-03-10T04:55:29.777Z,7.17
2023-03-10T04:58:00.425Z,8.30
2023-03-10T05:00:32.926Z,7.40
2023-03-10T05:03:03.289Z,9.17
2023-03-10T05:05:32.852Z,8.00
2023-03-10T05:08:02.525Z,8.00
2023-03-10T05:10:33.320Z,7.60
2023-03-10T05:13:03.132Z,8.10
2023-03-10T05:15:36.961Z,10.90
2023-03-10T05:18:06.682Z,10.40
2023-03-10T05:20:36.822Z,9.00
2023-03-10T05:23:06.837Z,8.73
2023-03-10T05:25:36.449Z,8.30
2023-03-10T05:28:06.348Z,9.50
2023-03-10T05:30:38.529Z,9.30
2023-03-10T05:33:08.168Z,11.20
2023-03-10T05:35:39.948Z,10.43
2023-03-10T05:38:09.944Z,10.27
2023-03-10T05:40:39.571Z,8.67
2023-03-10T05:43:09.220Z,9.77
2023-03-10T05:45:41.666Z,10.07
2023-03-10T05:48:11.335Z,11.70
2023-03-10T05:50:40.902Z,10.67
2023-03-10T05:53:11.450Z,13.07
2023-03-10T05:55:41.181Z,8.97
2023-03-10T05:58:10.943Z,10.20
2023-03-10T06:00:43.143Z,12.07
2023-03-10T06:03:12.774Z,12.83
2023-03-10T06:05:42.399Z,14.40
2023-03-10T06:08:11.983Z,17.00
2023-03-10T06:10:41.561Z,16.90
2023-03-10T06:13:11.157Z,13.00
2023-03-10T06:15:43.403Z,12.57
2023-03-10T06:18:12.982Z,9.63
2023-03-10T06:20:42.777Z,8.73
2023-03-10T06:23:12.556Z,10.00
2023-03-10T06:25:42.161Z,8.57
2023-03-10T06:28:12.332Z,9.13
2023-03-10T06:30:44.532Z,7.63
2023-03-10T06:33:14.302Z,8.53
2023-03-10T06:35:43.891Z,7.53
2023-03-10T06:38:14.230Z,11.27
2023-03-10T06:40:43.849Z,18.10
2023-03-10T06:43:13.525Z,18.80
2023-03-10T06:45:48.581Z,20.93
2023-03-10T06:48:18.847Z,42.93
2023-03-10T06:50:52.108Z,44.63
2023-03-10T06:53:23.648Z,17.20
2023-03-10T06:56:01.214Z,11.20
2023-03-10T06:58:32.434Z,8.80
2023-03-10T07:01:04.997Z,9.13
2023-03-10T07:03:34.628Z,10.40
2023-03-10T07:06:05.055Z,11.60
2023-03-10T07:08:34.726Z,10.17
2023-03-10T07:11:04.370Z,8.53
2023-03-10T07:13:33.929Z,10.00
2023-03-10T07:16:06.345Z,9.03
2023-03-10T07:18:36.310Z,6.87
2023-03-10T07:21:09.986Z,7.83
2023-03-10T07:23:39.989Z,6.53
2023-03-10T07:26:10.859Z,6.70
2023-03-10T07:28:41.017Z,6.83
2023-03-10T07:31:14.792Z,6.30
2023-03-10T07:33:44.748Z,6.77
2023-03-10T07:36:17.214Z,6.77
2023-03-10T07:38:46.955Z,6.03
2023-03-10T07:41:19.256Z,5.50
2023-03-10T07:43:49.212Z,6.40
2023-03-10T07:46:21.697Z,6.03
2023-03-10T07:48:52.794Z,5.67
2023-03-10T07:51:22.616Z,6.20
2023-03-10T07:53:52.286Z,6.27
2023-03-10T07:56:22.158Z,4.67
2023-03-10T07:58:51.776Z,5.97
2023-03-10T08:01:24.998Z,5.77
2023-03-10T08:03:57.545Z,4.50
2023-03-10T08:06:30.859Z,4.67
2023-03-10T08:09:00.883Z,5.20
2023-03-10T08:11:30.644Z,4.77
2023-03-10T08:14:00.348Z,4.57
2023-03-10T08:16:32.631Z,4.20
2023-03-10T08:19:02.245Z,4.40
2023-03-10T08:21:31.898Z,3.70
2023-03-10T08:24:01.468Z,3.97
2023-03-10T08:26:31.067Z,4.00
2023-03-10T08:29:00.618Z,4.30
2023-03-10T08:31:32.855Z,5.00
2023-03-10T08:34:02.453Z,5.37
2023-03-10T08:36:33.513Z,3.77
2023-03-10T08:39:05.734Z,4.63
2023-03-10T08:41:37.534Z,4.20
2023-03-10T08:44:08.283Z,4.17
2023-03-10T08:46:40.581Z,4.27
2023-03-10T08:49:10.611Z,4.00
2023-03-10T08:51:40.679Z,5.30
2023-03-10T08:54:10.767Z,8.33
2023-03-10T08:56:40.493Z,4.93
2023-03-10T08:59:10.148Z,5.60
2023-03-10T09:01:42.675Z,4.43
2023-03-10T09:04:13.230Z,4.10
2023-03-10T09:06:43.268Z,4.40
2023-03-10T09:09:13.196Z,4.23
2023-03-10T09:11:43.504Z,4.20
2023-03-10T09:14:17.042Z,4.10
2023-03-10T09:16:49.505Z,4.53
2023-03-10T09:19:21.870Z,4.63
2023-03-10T09:21:51.448Z,4.00
2023-03-10T09:24:21.059Z,3.93
2023-03-10T09:26:50.652Z,5.47
2023-03-10T09:29:23.024Z,4.20
2023-03-10T09:31:59.346Z,3.93
2023-03-10T09:34:30.120Z,4.13
2023-03-10T09:36:59.894Z,3.93
2023-03-10T09:39:29.481Z,4.73
2023-03-10T09:42:36.412Z,5.77
2023-03-10T09:45:25.783Z,4.43
2023-03-10T09:48:13.035Z,4.43
2023-03-10T09:50:46.401Z,8.43
2023-03-10T09:53:32.677Z,4.20
2023-03-10T09:56:03.044Z,4.03
2023-03-10T09:58:36.017Z,3.87
2023-03-10T10:01:08.133Z,4.80
2023-03-10T10:03:52.694Z,3.80
2023-03-10T10:06:28.510Z,3.90
2023-03-10T10:09:05.065Z,3.90
2023-03-10T10:11:36.924Z,4.50
2023-03-10T10:14:28.440Z,3.60
2023-03-10T10:17:07.348Z,3.90
2023-03-10T10:19:41.311Z,3.63
2023-03-10T10:22:18.264Z,3.60
2023-03-10T10:25:07.914Z,4.63
2023-03-10T10:27:38.211Z,3.63
2023-03-10T10:30:37.093Z,3.67
2023-03-10T10:33:08.354Z,4.37
2023-03-10T10:35:43.619Z,3.30
2023-03-10T10:38:26.244Z,4.13
2023-03-10T10:41:05.813Z,2.83
2023-03-10T10:43:43.864Z,3.27
2023-03-10T10:46:15.769Z,3.37
2023-03-10T10:48:46.921Z,3.50
2023-03-10T10:51:28.936Z,2.80
2023-03-10T10:53:59.194Z,3.53
2023-03-10T10:56:30.973Z,2.93
2023-03-10T10:59:07.102Z,3.00
2023-03-10T11:01:52.212Z,2.93
2023-03-10T11:04:22.832Z,2.63
2023-03-10T11:06:55.829Z,3.90
2023-03-10T11:09:26.346Z,3.20
2023-03-10T11:12:05.724Z,2.90
2023-03-10T11:14:57.147Z,2.70
2023-03-10T11:17:32.403Z,2.40
2023-03-10T11:20:16.370Z,3.50
2023-03-10T11:22:52.828Z,2.43
2023-03-10T11:25:29.614Z,2.37
2023-03-10T11:28:12.849Z,2.17
2023-03-10T11:30:49.545Z,2.37
2023-03-10T11:33:26.830Z,2.13
2023-03-10T11:36:01.119Z,2.60
2023-03-10T11:38:42.509Z,3.10
2023-03-10T11:41:17.237Z,3.00
2023-03-10T11:43:55.623Z,1.53
2023-03-10T11:46:30.508Z,2.20
2023-03-10T11:49:08.380Z,2.83
2023-03-10T11:51:42.532Z,2.83
2023-03-10T11:54:18.398Z,1.80
2023-03-10T11:56:48.482Z,1.73
2023-03-10T11:59:21.599Z,2.63
2023-03-10T12:01:55.784Z,2.13
2023-03-10T12:04:30.782Z,1.93
2023-03-10T12:07:07.773Z,1.83
2023-03-10T12:09:46.430Z,10.03
2023-03-10T12:12:19.134Z,14.30
2023-03-10T12:14:49.968Z,9.93
2023-03-10T12:17:20.490Z,6.03
2023-03-10T12:20:25.457Z,8.00
2023-03-10T12:22:56.684Z,3.50
2023-03-10T12:25:52.878Z,4.00
2023-03-10T12:28:28.181Z,4.10
2023-03-10T12:31:00.348Z,4.40
2023-03-10T12:33:47.597Z,3.17
2023-03-10T12:36:27.413Z,3.43
2023-03-10T12:38:59.256Z,2.63
2023-03-10T12:41:50.697Z,2.40
2023-03-10T12:44:46.763Z,1.97
2023-03-10T12:47:33.658Z,1.67
2023-03-10T12:50:09.391Z,2.30
2023-03-10T12:52:49.706Z,2.70
2023-03-10T12:55:22.162Z,1.90
2023-03-10T12:58:00.997Z,1.53
2023-03-10T13:00:38.107Z,2.23
2023-03-10T13:03:19.555Z,1.70
2023-03-10T13:06:06.667Z,1.83
2023-03-10T13:08:47.187Z,3.03
2023-03-10T13:11:27.412Z,1.80
2023-03-10T13:14:02.892Z,1.60
2023-03-10T13:16:33.454Z,1.87
2023-03-10T13:19:03.919Z,1.83
2023-03-10T13:21:35.298Z,1.90
2023-03-10T13:24:21.387Z,3.33
2023-03-10T13:26:50.974Z,1.70
2023-03-10T13:29:23.230Z,1.63
2023-03-10T13:31:56.210Z,2.20
2023-03-10T13:34:30.367Z,1.80
2023-03-10T13:37:06.882Z,2.03
2023-03-10T13:39:36.726Z,2.30
2023-03-10T13:42:24.073Z,2.23
2023-03-10T13:44:58.959Z,2.10
2023-03-10T13:47:31.907Z,2.50
2023-03-10T13:50:04.201Z,2.10
2023-03-10T13:52:34.660Z,2.57
2023-03-10T13:55:14.094Z,1.83
2023-03-10T13:57:45.147Z,1.73
2023-03-10T14:00:20.797Z,3.00
2023-03-10T14:02:52.482Z,2.27
2023-03-10T14:05:41.667Z,1.50
2023-03-10T14:08:27.943Z,2.20
2023-03-10T14:11:17.571Z,2.17
2023-03-10T14:13:49.768Z,2.20
2023-03-10T14:16:19.402Z,2.00
2023-03-10T14:18:49.048Z,2.00
2023-03-10T14:21:33.638Z,2.80
2023-03-10T14:24:08.688Z,3.00
2023-03-10T14:26:40.252Z,2.93
2023-03-10T14:29:18.447Z,3.10
2023-03-10T14:31:53.183Z,3.93
2023-03-10T14:34:22.781Z,33.03
2023-03-10T14:36:53.814Z,73.23
2023-03-10T14:39:23.444Z,3.60
2023-03-10T14:41:53.819Z,4.93
2023-03-10T14:44:25.966Z,3.17
2023-03-10T14:46:55.876Z,2.70
2023-03-10T14:49:28.089Z,3.20
2023-03-10T14:51:57.678Z,5.47
2023-03-10T14:54:27.752Z,5.33
2023-03-10T14:56:59.793Z,6.50
2023-03-10T14:59:32.054Z,3.70
2023-03-10T15:02:05.953Z,3.47
2023-03-10T15:04:35.779Z,2.97
2023-03-10T15:07:05.458Z,3.10
2023-03-10T15:09:35.405Z,2.37
2023-03-10T15:12:05.025Z,3.60
2023-03-10T15:14:37.250Z,2.43
2023-03-10T15:17:07.225Z,2.60
2023-03-10T15:19:36.830Z,4.60
2023-03-10T15:22:06.887Z,3.60
2023-03-10T15:24:36.508Z,3.83
2023-03-10T15:27:07.476Z,3.40
2023-03-10T15:29:39.728Z,5.03
2023-03-10T15:32:09.983Z,20.87
2023-03-10T15:34:39.609Z,6.20
2023-03-10T15:37:09.742Z,5.53
2023-03-10T15:39:39.364Z,4.40
2023-03-10T15:42:09.261Z,4.67
2023-03-10T15:44:42.083Z,4.27
2023-03-10T15:47:11.724Z,4.50
2023-03-10T15:49:41.868Z,4.30
2023-03-10T15:52:11.590Z,4.70
2023-03-10T15:54:41.195Z,5.20
2023-03-10T15:57:10.838Z,4.70
2023-03-10T15:59:43.032Z,4.20
2023-03-10T16:02:15.324Z,4.13
2023-03-10T16:04:45.459Z,3.53
2023-03-10T16:07:15.458Z,4.00
2023-03-10T16:09:45.103Z,4.40
2023-03-10T16:12:14.731Z,4.30
2023-03-10T16:14:46.915Z,4.20
2023-03-10T16:17:16.914Z,5.10
2023-03-10T16:19:46.578Z,3.27
2023-03-10T16:22:16.223Z,5.07
2023-03-10T16:24:46.139Z,3.93
2023-03-10T16:27:15.807Z,4.17
2023-03-10T16:29:48.579Z,9.07
2023-03-10T16:32:19.795Z,4.23
2023-03-10T16:34:49.720Z,4.40
2023-03-10T16:37:19.301Z,4.40
2023-03-10T16:39:48.986Z,5.80
2023-03-10T16:42:18.915Z,5.50
2023-03-10T16:44:51.326Z,5.20
2023-03-10T16:47:20.999Z,5.37
2023-03-10T16:49:50.721Z,7.13
2023-03-10T16:52:20.339Z,9.47
2023-03-10T16:54:50.035Z,9.60
2023-03-10T16:57:19.634Z,7.60
2023-03-10T16:59:51.871Z,8.10
2023-03-10T17:02:22.217Z,10.37
2023-03-10T17:04:52.013Z,35.23
2023-03-10T17:07:21.918Z,11.70
2023-03-10T17:09:51.532Z,7.87
2023-03-10T17:12:21.141Z,7.63
2023-03-10T17:14:55.423Z,7.27
2023-03-10T17:17:25.047Z,6.70
2023-03-10T17:19:54.694Z,6.07
2023-03-10T17:22:24.331Z,6.60
2023-03-10T17:24:55.764Z,6.40
2023-03-10T17:27:25.819Z,7.10
2023-03-10T17:29:58.062Z,7.93
2023-03-10T17:32:28.330Z,8.70
2023-03-10T17:34:57.975Z,17.50
2023-03-10T17:37:27.742Z,7.97
2023-03-10T17:39:57.421Z,9.50
2023-03-10T17:42:27.919Z,12.10
2023-03-10T17:45:00.149Z,10.10
2023-03-10T17:47:29.848Z,14.27
2023-03-10T17:50:02.135Z,13.03
2023-03-10T17:52:32.041Z,13.57
2023-03-10T17:55:01.669Z,14.07
2023-03-10T17:57:31.429Z,14.30
2023-03-10T18:00:05.078Z,12.67
2023-03-10T18:02:41.741Z,12.13
2023-03-10T18:05:13.016Z,13.37
2023-03-10T18:07:42.595Z,14.20
2023-03-10T18:10:13.730Z,12.00
2023-03-10T18:12:43.328Z,10.37
2023-03-10T18:15:16.107Z,11.03
2023-03-10T18:17:45.925Z,13.63
2023-03-10T18:20:17.407Z,14.60
2023-03-10T18:22:47.275Z,13.97
2023-03-10T18:25:16.931Z,16.30
2023-03-10T18:27:46.547Z,13.97
2023-03-10T18:30:20.419Z,15.07
2023-03-10T18:32:50.073Z,13.63
2023-03-10T18:35:19.998Z,14.70
2023-03-10T18:37:49.584Z,14.00
2023-03-10T18:40:19.978Z,14.03
2023-03-10T18:42:49.828Z,14.60
2023-03-10T18:45:22.396Z,15.23
2023-03-10T18:47:52.153Z,12.53
2023-03-10T18:50:22.060Z,11.73
2023-03-10T18:52:51.769Z,11.70
2023-03-10T18:55:21.636Z,14.20
2023-03-10T18:57:51.313Z,12.27
2023-03-10T19:00:24.619Z,10.97
2023-03-10T19:02:55.350Z,13.73
2023-03-10T19:05:25.038Z,12.30
2023-03-10T19:07:54.853Z,13.40
2023-03-10T19:10:25.203Z,13.27
2023-03-10T19:12:54.804Z,12.30
2023-03-10T19:15:27.841Z,13.20
2023-03-10T19:17:57.860Z,12.40
2023-03-10T19:20:27.493Z,13.13
2023-03-10T19:22:57.357Z,17.50
2023-03-10T19:25:27.275Z,18.33
2023-03-10T19:27:57.004Z,20.77
2023-03-10T19:30:29.261Z,23.70
2023-03-10T19:32:58.886Z,26.10
2023-03-10T19:35:28.613Z,26.10
2023-03-10T19:37:58.372Z,23.90
2023-03-10T19:40:28.007Z,24.20
2023-03-10T19:42:58.035Z,27.80
2023-03-10T19:45:31.110Z,24.73
2023-03-10T19:48:00.725Z,25.00
2023-03-10T19:50:30.591Z,27.53
2023-03-10T19:53:00.978Z,21.20
2023-03-10T19:55:30.597Z,25.90
2023-03-10T19:58:00.192Z,21.20
2023-03-10T20:00:36.072Z,21.80
2023-03-10T20:03:06.537Z,20.87
2023-03-10T20:05:36.195Z,19.20
2023-03-10T20:08:05.940Z,18.17
2023-03-10T20:10:35.606Z,22.92
2023-03-10T20:13:05.282Z,22.20
2023-03-10T20:15:39.713Z,20.10
2023-03-10T20:18:09.464Z,23.00
2023-03-10T20:20:39.129Z,22.60
2023-03-10T20:23:08.733Z,20.70
2023-03-10T20:25:38.372Z,22.73
2023-03-10T20:28:08.597Z,26.60
2023-03-10T20:30:41.291Z,23.70
2023-03-10T20:33:11.167Z,53.07
2023-03-10T20:35:40.872Z,24.13
2023-03-10T20:38:10.583Z,26.00
2023-03-10T20:40:40.543Z,26.00
2023-03-10T20:43:10.229Z,28.80
2023-03-10T20:45:43.671Z,27.75
2023-03-10T20:48:13.309Z,25.60
2023-03-10T20:50:42.944Z,30.55
2023-03-10T20:53:12.949Z,31.30
2023-03-10T20:55:44.463Z,30.07
2023-03-10T20:58:14.126Z,29.43
2023-03-10T21:00:48.824Z,30.07
2023-03-10T21:03:18.448Z,27.23
2023-03-10T21:05:48.031Z,30.20
2023-03-10T21:08:17.635Z,26.40
2023-03-10T21:10:49.363Z,32.03
2023-03-10T21:13:19.509Z,31.00
2023-03-10T21:15:53.152Z,29.20
2023-03-10T21:18:22.782Z,29.35
2023-03-10T21:20:52.368Z,26.07
2023-03-10T21:23:22.060Z,27.83
2023-03-10T21:25:51.726Z,22.07
2023-03-10T21:28:21.318Z,21.10
2023-03-10T21:30:53.572Z,21.30
2023-03-10T21:33:23.339Z,24.20
2023-03-10T21:35:53.015Z,20.88
2023-03-10T21:38:22.625Z,22.10
2023-03-10T21:40:52.357Z,20.27
2023-03-10T21:43:21.999Z,21.53
2023-03-10T21:45:54.232Z,21.83
2023-03-10T21:48:23.853Z,23.27
2023-03-10T21:50:53.469Z,24.57
2023-03-10T21:53:26.489Z,22.13
2023-03-10T21:55:57.683Z,23.73
2023-03-10T21:58:27.377Z,25.70
2023-03-10T22:00:59.658Z,29.13
2023-03-10T22:03:29.399Z,30.30
2023-03-10T22:05:59.058Z,33.90
2023-03-10T22:08:28.684Z,30.93
2023-03-10T22:10:58.378Z,36.43
2023-03-10T22:13:28.010Z,36.70
2023-03-10T22:16:02.069Z,37.60
2023-03-10T22:18:31.796Z,38.00
2023-03-10T22:21:01.404Z,36.00
2023-03-10T22:23:30.970Z,28.70
2023-03-10T22:26:00.575Z,31.02
2023-03-10T22:28:30.300Z,29.77
2023-03-10T22:31:02.515Z,30.90
2023-03-10T22:33:32.106Z,27.80
2023-03-10T22:36:05.157Z,25.10
2023-03-10T22:38:34.927Z,26.00
2023-03-10T22:41:04.671Z,27.80
2023-03-10T22:43:34.301Z,29.20
2023-03-10T22:46:13.229Z,25.20
2023-03-10T22:48:43.462Z,22.97
2023-03-10T22:51:15.915Z,25.23
2023-03-10T22:53:46.909Z,23.30
2023-03-10T22:56:16.668Z,23.70
2023-03-10T22:58:46.347Z,26.27
2023-03-10T23:01:19.001Z,22.77
2023-03-10T23:03:48.651Z,20.47
2023-03-10T23:06:19.764Z,25.27
2023-03-10T23:08:49.520Z,24.33
2023-03-10T23:11:19.305Z,22.80
2023-03-10T23:13:48.940Z,21.10
2023-03-10T23:16:21.209Z,20.07
2023-03-10T23:18:51.126Z,20.70
2023-03-10T23:21:20.770Z,20.47
2023-03-10T23:23:50.458Z,20.60
2023-03-10T23:26:20.102Z,20.13
2023-03-10T23:28:49.750Z,15.47
2023-03-10T23:31:22.019Z,17.00
2023-03-10T23:33:51.695Z,13.80
2023-03-10T23:36:21.412Z,14.67
2023-03-10T23:38:51.056Z,13.80
2023-03-10T23:41:22.187Z,13.40
2023-03-10T23:43:52.118Z,13.17
2023-03-10T23:46:24.793Z,17.07
2023-03-10T23:48:54.692Z,12.47
2023-03-10T23:51:24.313Z,11.47
2023-03-10T23:53:53.933Z,12.63
2023-03-10T23:56:23.581Z,10.50
2023-03-10T23:58:53.222Z,9.70
